EAGO2: Mountain Fork Riv, Eagletown,

                                SHEF ID:       EAGO2     Mountain Fork near Eagletown, OK
STATION TYPE: Stream Gauge
Regulating: Stage = 9.00, Flow = 9433

PRECIP STAGE RIV-FLOW WTR-TEMP BAT-LOAD
in ft cfs F volt
Ccp-Rev Ccp-Rev Ccp-Rev Ccp-Rev Ccp-Rev
(America/Chicago)
04/20 00:00 0.00 1.07 224 66.04 12.09
04/20 01:00 0.00 1.05 218 65.89 12.09
04/20 02:00 0.00 1.04 215 65.73 12.01
04/20 03:00 0.00 1.03 213 65.44 11.93
04/20 04:00 0.00 1.02 210 65.05 11.93
04/20 05:00 0.00 1.01 207 64.54 11.93
04/20 06:00 0.00 1.00 205 64.02 11.86
04/20 07:00 0.00 0.99 202 63.43 11.86
04/20 08:00 0.00 0.98 200 62.98 12.09
04/20 09:00 0.00 0.97 197 62.69 12.81
04/20 10:00 0.00 0.97 197 62.51 13.05
04/20 11:00 0.00 0.96 195 62.47 13.05
04/20 12:00 0.00 0.96 195 62.83 12.97
04/20 13:00 0.00 0.95 193 63.16 12.81
04/20 14:00 0.00 0.95 193 63.77 12.73
04/20 15:00 0.00 0.93 188 64.17 12.65
04/20 16:00 0.00 0.93 188 64.45 12.65
04/20 17:00 0.00 0.91 182 64.76 12.65
04/20 18:00 0.00 0.90 180 64.67 12.57
04/20 19:00 0.00 0.89 177 64.31 12.65
04/20 20:00 0.00 0.88 174 64.09 12.41
04/20 21:00 0.00 0.97 197 63.88 12.25
04/20 22:00 0.00 1.69 438 64.42 12.17
04/20 23:00 0.00 2.34 793 65.53 12.17
Data processed at Tue 21Apr2026 04:39 GMT

NOTICE: If you are parsing this page

Please convert to using our Data API. Starting early 2026 we will be migrating to: https://water.usace.army.mil with modern pages rendered in JavaScript. When this migration completes you will no longer be able to scrape this page! CWMSDataAPI (CDA)

Timeseries IDs (TSIDs)

TSIDs used from left to right in the data table
EAGL.Precip-Inc.Total.1Hour.1Hour.Ccp-Rev
EAGL.Stage.Inst.1Hour.0.Ccp-Rev
EAGL.Flow.Inst.1Hour.0.Ccp-Rev
EAGL.Temp-Water.Inst.1Hour.0.Ccp-Rev
EAGL.Volt-Battery Load.Inst.1Hour.0.Ccp-Rev

                            

All information presented herein is the property of the government of the United States of America and may be revised or deleted at any time without prior notice. Dissemination of this information without the expressed written consent of the Public Affairs Office, Tulsa District U.S. Army Corps of Engineers is strictly prohibited. These data are gathered electronically and, as presented, have NOT undergone any form of quality control. These data are NOT guaranteed to be valid or correct.